Time;durP1;ratioP1;P1;durP2;ratioP2;P2;SDS_P1;SDS_P2;PMS_P1;PMS_P2;Temp;Humidity;BMP_temperature;BMP_pressure;BME280_temperature;BME280_humidity;BME280_pressure;Samples;Min_cycle;Max_cycle;Signal;HPM_P1;HPM_P2
2023/02/20 00:01:14;;;;;;;;;;;17.20;63.30;;;;;;5041301;28;1296;-69
2023/02/20 00:03:39;;;;;;;;;;;17.20;63.30;;;;;;5046619;28;941;-69
2023/02/20 00:06:05;;;;;;;;;;;17.20;63.30;;;;;;5043175;28;1216;-69
2023/02/20 00:08:30;;;;;;;;;;;17.20;63.30;;;;;;5042433;28;887;-69
2023/02/20 00:10:56;;;;;;;;;;;17.20;63.40;;;;;;5048449;28;1234;-69
2023/02/20 00:13:21;;;;;;;;;;;17.20;63.30;;;;;;5044605;28;796;-70
2023/02/20 00:15:47;;;;;;;;;;;17.20;63.40;;;;;;5042658;28;902;-69
2023/02/20 00:18:13;;;;;;;;;;;17.30;63.40;;;;;;5047537;28;1963;-69
2023/02/20 00:20:38;;;;;;;;;;;17.20;63.40;;;;;;5045806;28;1292;-69
2023/02/20 00:23:04;;;;;;;;;;;17.20;63.40;;;;;;5045350;28;879;-69
2023/02/20 00:25:29;;;;;;;;;;;17.20;63.40;;;;;;5077125;28;891;-69
2023/02/20 00:27:55;;;;;;;;;;;17.20;63.40;;;;;;5044451;28;848;-67
2023/02/20 00:30:21;;;;;;;;;;;17.30;63.50;;;;;;5046784;28;1283;-67
2023/02/20 00:32:46;;;;;;;;;;;17.20;63.40;;;;;;5039873;28;903;-67
2023/02/20 00:35:12;;;;;;;;;;;17.20;63.40;;;;;;5039428;28;913;-68
2023/02/20 00:37:37;;;;;;;;;;;17.20;63.40;;;;;;5073215;28;1938;-68
2023/02/20 00:40:03;;;;;;;;;;;17.20;63.40;;;;;;5040664;28;1299;-68
2023/02/20 00:42:29;;;;;;;;;;;17.20;63.40;;;;;;5042667;28;953;-68
2023/02/20 00:44:54;;;;;;;;;;;17.20;63.40;;;;;;5073674;28;1029;-70
2023/02/20 00:47:19;;;;;;;;;;;17.20;63.40;;;;;;5037676;28;987;-70
2023/02/20 00:49:45;;;;;;;;;;;17.20;63.40;;;;;;5039730;28;1165;-70
2023/02/20 00:52:10;;;;;;;;;;;17.20;63.50;;;;;;5040103;28;1261;-70
2023/02/20 00:54:36;;;;;;;;;;;17.20;63.40;;;;;;5039279;28;1042;-70
2023/02/20 00:57:01;;;;;;;;;;;17.20;63.40;;;;;;5040871;28;1906;-70
2023/02/20 00:59:27;;;;;;;;;;;17.20;63.40;;;;;;5041469;28;922;-69
2023/02/20 01:01:52;;;;;;;;;;;17.20;63.40;;;;;;5041304;28;1302;-68
2023/02/20 01:04:18;;;;;;;;;;;17.20;63.40;;;;;;5038676;28;796;-68
2023/02/20 01:06:44;;;;;;;;;;;17.20;63.50;;;;;;5042267;28;1187;-68
2023/02/20 01:09:09;;;;;;;;;;;17.20;63.50;;;;;;5040004;28;979;-68
2023/02/20 01:11:34;;;;;;;;;;;17.20;63.50;;;;;;5040938;28;1378;-68
2023/02/20 01:14:00;;;;;;;;;;;17.20;63.50;;;;;;5039001;28;911;-68
2023/02/20 01:16:25;;;;;;;;;;;17.20;63.50;;;;;;5039944;28;1210;-67
2023/02/20 01:18:51;;;;;;;;;;;17.20;63.50;;;;;;5041312;28;1906;-69
2023/02/20 01:21:16;;;;;;;;;;;17.20;63.50;;;;;;5040292;28;1298;-69
2023/02/20 01:23:42;;;;;;;;;;;17.20;63.60;;;;;;5040737;28;1496;-69
2023/02/20 01:26:07;;;;;;;;;;;17.20;63.50;;;;;;5038945;28;1081;-69
2023/02/20 01:28:33;;;;;;;;;;;17.20;63.50;;;;;;5038962;28;851;-69
2023/02/20 01:30:58;;;;;;;;;;;17.20;63.50;;;;;;5071110;28;1452;-67
2023/02/20 01:33:24;;;;;;;;;;;17.20;63.60;;;;;;5041836;28;892;-68
2023/02/20 01:35:49;;;;;;;;;;;17.20;63.60;;;;;;5043308;28;1232;-67
2023/02/20 01:38:15;;;;;;;;;;;17.20;63.50;;;;;;5038194;28;1958;-68
2023/02/20 01:40:45;;;;;;;;;;;17.20;63.50;;;;;;5041335;28;1247;-68
2023/02/20 01:43:10;;;;;;;;;;;17.20;63.50;;;;;;5071362;28;858;-68
2023/02/20 01:45:36;;;;;;;;;;;17.10;63.50;;;;;;5039705;28;872;-68
2023/02/20 01:48:02;;;;;;;;;;;17.20;63.50;;;;;;5073484;28;937;-69
2023/02/20 01:50:28;;;;;;;;;;;17.20;63.50;;;;;;5073928;28;1325;-69
2023/02/20 01:52:55;;;;;;;;;;;17.20;63.60;;;;;;5072912;28;844;-68
2023/02/20 01:55:28;;;;;;;;;;;17.20;63.60;;;;;;5030675;28;944;-68
2023/02/20 01:57:57;;;;;;;;;;;17.10;63.40;;;;;;5039513;28;1906;-68
2023/02/20 02:00:25;;;;;;;;;;;17.20;63.50;;;;;;5038270;28;1254;-68
2023/02/20 02:02:51;;;;;;;;;;;17.10;63.50;;;;;;5071393;28;906;-69
2023/02/20 02:05:16;;;;;;;;;;;17.10;64.20;;;;;;5070401;28;911;-68
2023/02/20 02:07:42;;;;;;;;;;;17.10;63.50;;;;;;5038484;28;876;-68
2023/02/20 02:10:09;;;;;;;;;;;17.10;63.50;;;;;;5039953;28;1342;-68
2023/02/20 02:12:34;;;;;;;;;;;17.10;63.50;;;;;;5038142;28;1030;-67
2023/02/20 02:15:00;;;;;;;;;;;17.10;63.50;;;;;;5070646;28;874;-67
2023/02/20 02:17:44;;;;;;;;;;;17.10;63.50;;;;;;5037950;28;1898;-67
2023/02/20 02:20:28;;;;;;;;;;;17.10;63.50;;;;;;5039449;28;1288;-67
2023/02/20 02:23:26;;;;;;;;;;;17.20;63.60;;;;;;5038130;28;919;-67
2023/02/20 02:26:10;;;;;;;;;;;17.20;63.60;;;;;;5036942;28;1143;-67
2023/02/20 02:28:41;;;;;;;;;;;17.10;63.50;;;;;;5041925;28;923;-67
2023/02/20 02:31:09;;;;;;;;;;;17.20;63.60;;;;;;5038545;28;1282;-67
2023/02/20 02:33:44;;;;;;;;;;;17.10;63.50;;;;;;5042141;28;813;-69
2023/02/20 02:36:38;;;;;;;;;;;17.20;63.60;;;;;;5038334;28;851;-69
2023/02/20 02:39:22;;;;;;;;;;;17.20;63.60;;;;;;5046191;28;1902;-69
2023/02/20 02:41:51;;;;;;;;;;;17.10;63.50;;;;;;5039087;28;1250;-70
2023/02/20 02:44:19;;;;;;;;;;;17.10;63.60;;;;;;5070346;28;1081;-68
2023/02/20 02:46:48;;;;;;;;;;;17.10;63.50;;;;;;5036582;28;860;-69
2023/02/20 02:49:19;;;;;;;;;;;17.10;63.50;;;;;;5036905;28;1291;-69
2023/02/20 02:51:46;;;;;;;;;;;17.10;63.50;;;;;;5036662;28;1313;-69
2023/02/20 02:54:16;;;;;;;;;;;17.20;63.60;;;;;;5071889;28;776;-68
2023/02/20 02:56:46;;;;;;;;;;;17.20;63.60;;;;;;5037820;28;861;-68
2023/02/20 02:59:19;;;;;;;;;;;17.20;63.60;;;;;;5040706;28;1971;-68
2023/02/20 03:01:46;;;;;;;;;;;17.10;63.50;;;;;;5035835;28;1236;-69
2023/02/20 03:04:11;;;;;;;;;;;17.10;63.60;;;;;;5036074;28;1014;-69
2023/02/20 03:06:38;;;;;;;;;;;17.20;63.60;;;;;;5070028;28;1061;-68
2023/02/20 03:09:11;;;;;;;;;;;17.10;63.60;;;;;;5069271;28;820;-68
2023/02/20 03:11:36;;;;;;;;;;;17.10;63.60;;;;;;5070915;28;1240;-68
2023/02/20 03:17:01;;;;;;;;;;;17.20;63.60;;;;;;5041088;28;772;-68
2023/02/20 03:19:36;;;;;;;;;;;17.10;63.50;;;;;;5034636;28;820;-69
2023/02/20 03:22:01;;;;;;;;;;;17.20;63.70;;;;;;5067488;28;1345;-69
2023/02/20 03:24:27;;;;;;;;;;;17.20;63.60;;;;;;5071979;28;1389;-69
2023/02/20 03:26:52;;;;;;;;;;;17.10;63.50;;;;;;5069812;28;931;-68
2023/02/20 03:29:23;;;;;;;;;;;17.10;63.50;;;;;;5070370;28;1385;-69
2023/02/20 03:45:36;;;;;;;;;;;17.10;63.50;;;;;;5041295;28;1257;-68
2023/02/20 03:48:03;;;;;;;;;;;17.10;63.60;;;;;;5071816;28;887;-68
2023/02/20 03:50:29;;;;;;;;;;;17.10;63.50;;;;;;5068366;28;1361;-68
2023/02/20 03:52:54;;;;;;;;;;;17.10;63.50;;;;;;5037880;28;833;-68
2023/02/20 03:55:20;;;;;;;;;;;17.10;63.50;;;;;;5037941;28;1202;-69
2023/02/20 03:57:47;;;;;;;;;;;17.10;63.50;;;;;;5070809;28;1955;-68
2023/02/20 04:00:17;;;;;;;;;;;17.10;63.60;;;;;;5071318;28;1343;-68
2023/02/20 04:02:43;;;;;;;;;;;17.10;63.60;;;;;;5069070;28;1018;-69
2023/02/20 04:05:11;;;;;;;;;;;17.20;63.60;;;;;;5070390;28;862;-69
2023/02/20 04:07:57;;;;;;;;;;;17.10;63.60;;;;;;5070094;28;1128;-69
2023/02/20 04:10:24;;;;;;;;;;;17.10;63.50;;;;;;5074798;28;1766;-68
2023/02/20 04:12:50;;;;;;;;;;;17.10;63.50;;;;;;5040063;28;976;-68
2023/02/20 04:15:15;;;;;;;;;;;17.10;63.50;;;;;;5080393;28;856;-68
2023/02/20 04:17:48;;;;;;;;;;;17.10;63.60;;;;;;5075965;28;1882;-69
2023/02/20 04:20:14;;;;;;;;;;;17.10;63.60;;;;;;5075810;28;1381;-68
2023/02/20 04:22:41;;;;;;;;;;;17.10;63.50;;;;;;5039628;28;1281;-69
2023/02/20 04:25:12;;;;;;;;;;;17.10;63.50;;;;;;5075370;28;1018;-68
2023/02/20 04:27:37;;;;;;;;;;;17.10;63.50;;;;;;5073258;28;849;-69
2023/02/20 04:30:03;;;;;;;;;;;17.10;63.50;;;;;;5039047;28;1298;-69
2023/02/20 04:32:28;;;;;;;;;;;17.10;63.60;;;;;;5077366;28;925;-68
2023/02/20 04:34:54;;;;;;;;;;;17.10;64.30;;;;;;5040557;28;845;-68
2023/02/20 04:37:19;;;;;;;;;;;17.10;64.30;;;;;;5040829;28;1898;-69
2023/02/20 04:39:45;;;;;;;;;;;17.10;63.50;;;;;;5042976;28;846;-68
2023/02/20 04:42:10;;;;;;;;;;;17.10;63.50;;;;;;5049349;28;1715;-68
2023/02/20 04:44:36;;;;;;;;;;;17.10;63.50;;;;;;5041939;28;864;-69
2023/02/20 04:47:03;;;;;;;;;;;17.10;63.60;;;;;;5041453;28;851;-68
2023/02/20 04:49:28;;;;;;;;;;;17.10;63.60;;;;;;5073969;28;934;-68
2023/02/20 04:51:54;;;;;;;;;;;17.10;63.60;;;;;;5040935;28;1228;-68
2023/02/20 04:54:19;;;;;;;;;;;17.10;63.60;;;;;;5041536;28;903;-68
2023/02/20 04:56:45;;;;;;;;;;;17.10;63.60;;;;;;5041017;28;1850;-68
2023/02/20 04:59:10;;;;;;;;;;;17.10;63.60;;;;;;5041652;28;1914;-68
2023/02/20 05:01:36;;;;;;;;;;;17.10;63.60;;;;;;5040834;28;1393;-68
2023/02/20 05:04:01;;;;;;;;;;;17.10;63.60;;;;;;5042081;28;884;-68
2023/02/20 05:06:27;;;;;;;;;;;17.10;63.60;;;;;;5070620;28;877;-68
2023/02/20 05:08:52;;;;;;;;;;;17.10;63.60;;;;;;5058919;28;1479;-68
2023/02/20 05:11:19;;;;;;;;;;;17.10;63.60;;;;;;5076098;28;1376;-68
2023/02/20 05:13:44;;;;;;;;;;;17.10;63.60;;;;;;5073368;28;951;-68
2023/02/20 05:16:09;;;;;;;;;;;17.10;63.50;;;;;;5039907;28;875;-67
2023/02/20 05:18:35;;;;;;;;;;;17.10;63.40;;;;;;5037099;28;1931;-68
2023/02/20 05:23:45;;;;;;;;;;;17.20;63.30;;;;;;5039728;28;759;-68
2023/02/20 05:26:11;;;;;;;;;;;17.20;63.10;;;;;;5039224;28;950;-68
2023/02/20 05:28:38;;;;;;;;;;;17.30;63.10;;;;;;5040604;28;863;-68
2023/02/20 05:31:04;;;;;;;;;;;17.30;63.00;;;;;;5073451;28;1361;-68
2023/02/20 05:33:29;;;;;;;;;;;17.30;62.90;;;;;;5039555;28;761;-68
2023/02/20 05:35:55;;;;;;;;;;;17.30;63.60;;;;;;5043889;28;1133;-68
2023/02/20 05:38:20;;;;;;;;;;;17.40;62.70;;;;;;5039925;28;1898;-68
2023/02/20 05:40:46;;;;;;;;;;;17.40;62.70;;;;;;5073500;28;1328;-68
2023/02/20 05:43:11;;;;;;;;;;;17.40;62.60;;;;;;5042675;28;1109;-68
2023/02/20 05:45:37;;;;;;;;;;;17.40;62.40;;;;;;5040983;28;868;-68
2023/02/20 05:48:02;;;;;;;;;;;17.40;62.40;;;;;;5040538;28;939;-68
2023/02/20 05:50:28;;;;;;;;;;;17.40;62.30;;;;;;5038228;28;1359;-68
2023/02/20 05:52:53;;;;;;;;;;;17.50;62.30;;;;;;5041605;28;1006;-68
2023/02/20 05:55:19;;;;;;;;;;;17.50;62.30;;;;;;5035129;28;852;-67
2023/02/20 05:57:44;;;;;;;;;;;17.50;62.20;;;;;;5044729;28;1902;-68
2023/02/20 06:00:10;;;;;;;;;;;17.50;62.20;;;;;;5039764;28;1227;-68
2023/02/20 06:02:36;;;;;;;;;;;17.50;62.20;;;;;;5041334;28;767;-67
2023/02/20 06:05:04;;;;;;;;;;;17.50;62.10;;;;;;5036914;28;899;-68
2023/02/20 06:07:30;;;;;;;;;;;17.50;62.10;;;;;;5069922;28;904;-67
2023/02/20 06:09:55;;;;;;;;;;;17.60;62.10;;;;;;5039567;28;879;-68
2023/02/20 06:12:20;;;;;;;;;;;17.60;62.10;;;;;;5040032;28;1233;-67
2023/02/20 06:14:46;;;;;;;;;;;17.50;62.10;;;;;;5039434;28;967;-67
2023/02/20 06:17:11;;;;;;;;;;;17.50;62.00;;;;;;5037297;28;1898;-67
2023/02/20 06:19:37;;;;;;;;;;;17.50;62.00;;;;;;5038354;28;886;-68
2023/02/20 06:22:03;;;;;;;;;;;17.60;62.10;;;;;;5041467;28;1271;-68
2023/02/20 06:24:28;;;;;;;;;;;17.60;62.10;;;;;;5039603;28;890;-68
2023/02/20 06:26:54;;;;;;;;;;;17.60;62.10;;;;;;5038488;28;942;-68
2023/02/20 06:29:19;;;;;;;;;;;17.60;62.10;;;;;;5040996;28;1372;-68
2023/02/20 06:31:45;;;;;;;;;;;17.60;62.10;;;;;;5039270;28;1365;-68
2023/02/20 06:34:10;;;;;;;;;;;17.60;62.10;;;;;;5040299;28;864;-68
2023/02/20 06:36:36;;;;;;;;;;;17.50;62.10;;;;;;5041179;28;1424;-68
2023/02/20 06:39:02;;;;;;;;;;;17.50;62.30;;;;;;5065593;28;2206;-69
2023/02/20 06:41:27;;;;;;;;;;;17.60;62.30;;;;;;5055573;28;1392;-68
2023/02/20 06:43:53;;;;;;;;;;;17.70;62.20;;;;;;5055921;28;1286;-69
2023/02/20 06:46:18;;;;;;;;;;;17.70;62.00;;;;;;5037936;28;867;-68
2023/02/20 06:48:45;;;;;;;;;;;17.90;62.00;;;;;;5039735;28;888;-68
2023/02/20 06:51:10;;;;;;;;;;;18.00;61.60;;;;;;5071682;28;1340;-69
2023/02/20 06:53:37;;;;;;;;;;;18.10;61.20;;;;;;5037476;28;920;-68
2023/02/20 06:56:06;;;;;;;;;;;18.30;60.90;;;;;;5035724;28;1857;-68
2023/02/20 06:58:32;;;;;;;;;;;18.40;60.50;;;;;;5071035;28;1906;-70
2023/02/20 07:00:58;;;;;;;;;;;18.50;60.10;;;;;;5035881;28;1451;-70
2023/02/20 07:03:24;;;;;;;;;;;18.60;59.90;;;;;;5038666;28;880;-70
2023/02/20 07:05:49;;;;;;;;;;;18.70;59.70;;;;;;5067384;28;938;-70
2023/02/20 07:08:15;;;;;;;;;;;18.80;59.50;;;;;;5034874;28;777;-70
2023/02/20 07:10:40;;;;;;;;;;;18.90;59.30;;;;;;5036881;28;1374;-70
2023/02/20 07:13:06;;;;;;;;;;;19.00;59.10;;;;;;5039520;28;880;-70
2023/02/20 07:15:31;;;;;;;;;;;19.10;58.90;;;;;;5036094;28;1018;-70
2023/02/20 07:17:57;;;;;;;;;;;19.10;58.80;;;;;;5037866;28;1906;-70
2023/02/20 07:20:23;;;;;;;;;;;19.20;58.60;;;;;;5068252;28;1368;-70
2023/02/20 07:22:52;;;;;;;;;;;19.30;58.50;;;;;;5071233;28;907;-70
2023/02/20 07:25:18;;;;;;;;;;;19.30;58.40;;;;;;5039527;28;875;-70
2023/02/20 07:27:43;;;;;;;;;;;19.40;58.30;;;;;;5037087;28;928;-69
2023/02/20 07:30:09;;;;;;;;;;;19.40;58.20;;;;;;5037753;28;1345;-68
2023/02/20 07:32:34;;;;;;;;;;;19.50;58.10;;;;;;5033647;28;947;-68
2023/02/20 07:35:00;;;;;;;;;;;19.50;58.00;;;;;;5038476;28;857;-69
2023/02/20 07:37:25;;;;;;;;;;;19.50;58.00;;;;;;5037632;28;1910;-68
2023/02/20 07:39:51;;;;;;;;;;;19.60;57.90;;;;;;5070190;28;907;-69
2023/02/20 07:42:17;;;;;;;;;;;19.60;57.90;;;;;;5039256;28;1232;-68
2023/02/20 07:44:43;;;;;;;;;;;19.60;57.80;;;;;;5042257;28;881;-68
2023/02/20 07:47:08;;;;;;;;;;;19.70;57.80;;;;;;5040541;28;878;-68
2023/02/20 07:49:34;;;;;;;;;;;19.70;57.70;;;;;;5043279;28;1014;-69
2023/02/20 07:51:59;;;;;;;;;;;19.70;57.70;;;;;;5040437;28;1684;-70
2023/02/20 07:54:26;;;;;;;;;;;19.70;57.60;;;;;;5041916;28;1812;-69
2023/02/20 07:56:51;;;;;;;;;;;19.80;58.20;;;;;;5042717;28;1329;-69
2023/02/20 07:59:17;;;;;;;;;;;19.80;57.60;;;;;;5038440;28;1965;-69
2023/02/20 08:01:43;;;;;;;;;;;19.80;57.50;;;;;;5040139;28;1574;-69
2023/02/20 08:04:08;;;;;;;;;;;19.80;57.50;;;;;;5042128;28;1292;-69
2023/02/20 08:06:34;;;;;;;;;;;19.80;57.40;;;;;;5043908;28;1201;-69
2023/02/20 08:08:59;;;;;;;;;;;19.90;57.40;;;;;;5040063;28;943;-68
2023/02/20 08:11:25;;;;;;;;;;;19.90;57.40;;;;;;5041320;28;1531;-69
2023/02/20 08:13:50;;;;;;;;;;;19.90;57.40;;;;;;5042103;28;863;-69
2023/02/20 08:16:15;;;;;;;;;;;19.90;57.40;;;;;;5036633;28;808;-68
2023/02/20 08:18:41;;;;;;;;;;;19.90;57.30;;;;;;5039433;28;1902;-68
2023/02/20 08:21:06;;;;;;;;;;;19.90;57.40;;;;;;5042022;28;1357;-69
2023/02/20 08:23:32;;;;;;;;;;;19.90;57.40;;;;;;5043391;28;812;-68
2023/02/20 08:25:59;;;;;;;;;;;19.90;57.40;;;;;;5041980;28;887;-68
2023/02/20 08:28:24;;;;;;;;;;;19.90;58.10;;;;;;5041887;28;1516;-68
2023/02/20 08:30:49;;;;;;;;;;;19.90;57.50;;;;;;5041723;28;1540;-68
2023/02/20 08:33:15;;;;;;;;;;;19.90;57.60;;;;;;5042266;28;1032;-70
2023/02/20 08:35:40;;;;;;;;;;;19.80;57.60;;;;;;5038273;28;851;-70
2023/02/20 08:38:07;;;;;;;;;;;19.90;57.70;;;;;;5040381;28;1996;-70
2023/02/20 08:40:32;;;;;;;;;;;19.80;57.80;;;;;;5071713;28;1386;-70
2023/02/20 08:42:58;;;;;;;;;;;19.80;57.90;;;;;;5041583;28;853;-69
2023/02/20 08:45:23;;;;;;;;;;;19.80;58.00;;;;;;5040741;28;934;-69
2023/02/20 08:47:49;;;;;;;;;;;19.80;58.10;;;;;;5039898;28;844;-68
2023/02/20 08:50:15;;;;;;;;;;;19.70;58.10;;;;;;5071110;28;1283;-68
2023/02/20 08:52:41;;;;;;;;;;;19.70;58.20;;;;;;5070408;28;970;-68
2023/02/20 08:55:07;;;;;;;;;;;19.70;58.20;;;;;;5039305;28;923;-68
2023/02/20 08:57:32;;;;;;;;;;;19.70;58.20;;;;;;5039477;28;1906;-68
2023/02/20 08:59:58;;;;;;;;;;;19.70;58.30;;;;;;5042881;28;1361;-69
2023/02/20 09:02:24;;;;;;;;;;;19.70;58.20;;;;;;5043334;28;1264;-68
2023/02/20 09:04:50;;;;;;;;;;;19.70;58.20;;;;;;5071667;28;2029;-69
2023/02/20 09:07:15;;;;;;;;;;;19.70;58.30;;;;;;5040783;28;1699;-67
2023/02/20 09:09:41;;;;;;;;;;;19.70;58.30;;;;;;5072366;28;1723;-68
2023/02/20 09:12:07;;;;;;;;;;;19.70;58.30;;;;;;5041454;28;1508;-68
2023/02/20 09:14:32;;;;;;;;;;;19.60;58.20;;;;;;5070357;28;878;-68
2023/02/20 09:16:58;;;;;;;;;;;19.60;58.20;;;;;;5043341;28;863;-67
2023/02/20 09:19:23;;;;;;;;;;;19.60;58.30;;;;;;5039841;28;1967;-67
2023/02/20 09:21:49;;;;;;;;;;;19.60;58.30;;;;;;5040067;28;1336;-67
2023/02/20 09:24:14;;;;;;;;;;;19.60;58.30;;;;;;5040320;28;890;-68
2023/02/20 09:26:40;;;;;;;;;;;19.60;58.40;;;;;;5039911;28;793;-68
2023/02/20 09:29:05;;;;;;;;;;;19.50;58.40;;;;;;5038253;28;947;-68
2023/02/20 09:31:31;;;;;;;;;;;19.50;58.50;;;;;;5039238;28;1228;-68
2023/02/20 09:33:56;;;;;;;;;;;19.50;58.50;;;;;;5043028;28;943;-68
2023/02/20 09:36:22;;;;;;;;;;;19.50;58.50;;;;;;5042235;28;806;-68
2023/02/20 09:38:47;;;;;;;;;;;19.40;58.60;;;;;;5038871;28;1906;-68
2023/02/20 09:41:22;;;;;;;;;;;19.40;58.60;;;;;;5046461;28;1332;-68
2023/02/20 09:43:54;;;;;;;;;;;19.40;58.70;;;;;;5039247;28;816;-68
2023/02/20 09:46:23;;;;;;;;;;;19.40;58.80;;;;;;5071854;28;886;-68
2023/02/20 09:48:51;;;;;;;;;;;19.30;58.80;;;;;;5034670;28;841;-68
2023/02/20 09:51:21;;;;;;;;;;;19.30;58.90;;;;;;5039060;28;1269;-69
2023/02/20 09:54:05;;;;;;;;;;;19.30;59.00;;;;;;5071306;28;875;-68
2023/02/20 09:56:35;;;;;;;;;;;19.30;59.10;;;;;;5040408;28;818;-68
2023/02/20 09:59:03;;;;;;;;;;;19.20;59.10;;;;;;5069932;28;1960;-68
2023/02/20 10:01:29;;;;;;;;;;;19.20;59.10;;;;;;5038535;28;1385;-68
2023/02/20 10:03:58;;;;;;;;;;;19.20;59.20;;;;;;5069931;28;795;-68
2023/02/20 10:06:25;;;;;;;;;;;19.20;59.20;;;;;;5068365;28;1285;-68
2023/02/20 10:08:50;;;;;;;;;;;19.20;59.20;;;;;;5068888;28;806;-67
2023/02/20 10:11:31;;;;;;;;;;;19.20;59.20;;;;;;5070513;28;1386;-67
2023/02/20 10:14:26;;;;;;;;;;;19.20;59.30;;;;;;5038247;28;951;-67
2023/02/20 10:16:57;;;;;;;;;;;19.20;59.30;;;;;;5036336;28;1488;-67
2023/02/20 10:19:26;;;;;;;;;;;19.10;59.30;;;;;;5034573;28;1965;-68
2023/02/20 10:21:58;;;;;;;;;;;19.10;59.40;;;;;;5070741;28;1363;-68
2023/02/20 10:24:31;;;;;;;;;;;19.10;59.40;;;;;;5070227;28;1393;-67
2023/02/20 10:27:00;;;;;;;;;;;19.10;59.40;;;;;;5071685;28;910;-68
2023/02/20 10:29:26;;;;;;;;;;;19.10;60.10;;;;;;5070310;28;871;-69
2023/02/20 10:32:02;;;;;;;;;;;19.10;59.50;;;;;;5071712;28;1260;-69
2023/02/20 10:34:38;;;;;;;;;;;19.00;59.50;;;;;;5068702;28;1023;-69
2023/02/20 10:37:07;;;;;;;;;;;19.00;59.60;;;;;;5071695;28;1484;-69
2023/02/20 10:39:33;;;;;;;;;;;19.00;59.60;;;;;;5037953;28;1945;-68
2023/02/20 10:42:17;;;;;;;;;;;19.00;59.70;;;;;;5069414;28;1247;-68
2023/02/20 10:44:53;;;;;;;;;;;19.00;59.70;;;;;;5038255;28;840;-69
2023/02/20 10:47:41;;;;;;;;;;;18.90;59.70;;;;;;5075201;28;929;-69
2023/02/20 10:50:21;;;;;;;;;;;18.90;59.70;;;;;;5041849;28;1185;-69
2023/02/20 10:52:52;;;;;;;;;;;18.90;59.80;;;;;;5038293;28;1532;-69
2023/02/20 10:55:20;;;;;;;;;;;18.90;59.80;;;;;;5038082;28;1417;-69
2023/02/20 10:57:50;;;;;;;;;;;18.90;60.00;;;;;;5068797;28;1960;-69
2023/02/20 11:00:19;;;;;;;;;;;18.80;59.90;;;;;;5070682;28;1605;-69
2023/02/20 11:02:46;;;;;;;;;;;18.80;59.90;;;;;;5067826;28;971;-68
2023/02/20 11:05:12;;;;;;;;;;;18.80;60.00;;;;;;5068584;28;1295;-69
2023/02/20 11:07:38;;;;;;;;;;;18.80;60.00;;;;;;5067829;28;1026;-69
2023/02/20 11:10:04;;;;;;;;;;;18.70;60.00;;;;;;5070493;28;1211;-69
2023/02/20 11:12:37;;;;;;;;;;;18.70;60.10;;;;;;5068819;28;898;-70
2023/02/20 11:15:10;;;;;;;;;;;18.70;60.10;;;;;;5069051;28;839;-72
2023/02/20 11:17:37;;;;;;;;;;;18.70;60.20;;;;;;5067617;28;1898;-71
2023/02/20 11:20:03;;;;;;;;;;;18.70;59.10;;;;;;5066734;28;1252;-71
2023/02/20 11:22:42;;;;;;;;;;;18.60;58.00;;;;;;5038489;28;824;-69
2023/02/20 11:25:21;;;;;;;;;;;18.60;57.10;;;;;;5056620;28;1338;-70
2023/02/20 11:27:47;;;;;;;;;;;18.50;56.60;;;;;;5070642;28;1419;-70
2023/02/20 11:30:20;;;;;;;;;;;18.50;56.20;;;;;;5070632;28;1264;-70
2023/02/20 11:32:46;;;;;;;;;;;18.50;56.40;;;;;;5072464;28;1358;-71
2023/02/20 11:35:18;;;;;;;;;;;18.40;56.80;;;;;;5071435;28;887;-71
2023/02/20 11:37:44;;;;;;;;;;;18.40;57.20;;;;;;5035847;28;1902;-67
2023/02/20 11:40:16;;;;;;;;;;;18.40;57.40;;;;;;5071576;28;1270;-67
2023/02/20 11:42:42;;;;;;;;;;;18.40;57.60;;;;;;5036737;28;872;-70
2023/02/20 11:45:14;;;;;;;;;;;18.40;57.80;;;;;;5070832;28;895;-72
2023/02/20 11:47:40;;;;;;;;;;;18.40;58.00;;;;;;5069430;28;891;-70
2023/02/20 11:50:09;;;;;;;;;;;18.40;58.20;;;;;;5071174;28;1300;-71
2023/02/20 11:52:35;;;;;;;;;;;18.30;58.30;;;;;;5037973;28;831;-71
2023/02/20 11:55:08;;;;;;;;;;;18.30;58.40;;;;;;5071917;28;1362;-70
2023/02/20 11:57:34;;;;;;;;;;;18.30;58.50;;;;;;5036824;28;1965;-71
2023/02/20 12:00:09;;;;;;;;;;;18.30;58.60;;;;;;5069478;28;1272;-71
2023/02/20 12:02:34;;;;;;;;;;;18.30;58.70;;;;;;5073834;28;908;-71
2023/02/20 12:05:02;;;;;;;;;;;18.30;58.80;;;;;;5037594;28;1543;-70
2023/02/20 12:07:46;;;;;;;;;;;18.30;58.90;;;;;;5037816;28;946;-71
2023/02/20 12:10:15;;;;;;;;;;;18.30;59.00;;;;;;5035765;28;1292;-71
2023/02/20 12:12:40;;;;;;;;;;;18.30;59.10;;;;;;5070379;28;1108;-70
2023/02/20 12:15:11;;;;;;;;;;;18.30;59.20;;;;;;5041408;28;880;-68
2023/02/20 12:17:47;;;;;;;;;;;18.30;59.30;;;;;;5073504;28;1906;-69
2023/02/20 12:20:17;;;;;;;;;;;18.20;59.30;;;;;;5070447;28;1350;-70
2023/02/20 12:23:02;;;;;;;;;;;18.20;59.40;;;;;;5071934;28;898;-68
2023/02/20 12:25:30;;;;;;;;;;;18.20;59.50;;;;;;5038748;28;958;-68
2023/02/20 12:28:01;;;;;;;;;;;18.20;59.60;;;;;;5036943;28;908;-71
2023/02/20 12:30:42;;;;;;;;;;;18.20;59.60;;;;;;5073798;28;1248;-69
2023/02/20 12:33:23;;;;;;;;;;;18.20;59.70;;;;;;5044940;28;1045;-70
2023/02/20 12:35:58;;;;;;;;;;;18.20;59.80;;;;;;5042433;28;817;-70
2023/02/20 12:38:42;;;;;;;;;;;18.20;59.80;;;;;;5073543;28;1902;-70
2023/02/20 12:41:26;;;;;;;;;;;18.10;59.80;;;;;;5074078;28;1655;-70
2023/02/20 12:44:04;;;;;;;;;;;18.10;59.90;;;;;;5042960;28;1318;-69
2023/02/20 12:46:30;;;;;;;;;;;18.10;60.00;;;;;;5040129;28;1919;-67
2023/02/20 12:49:05;;;;;;;;;;;18.10;60.80;;;;;;5073716;28;2364;-67
2023/02/20 12:51:36;;;;;;;;;;;18.10;60.20;;;;;;5041538;28;1257;-67
2023/02/20 12:54:05;;;;;;;;;;;18.10;60.30;;;;;;5072104;28;1406;-67
2023/02/20 12:56:49;;;;;;;;;;;18.10;60.30;;;;;;5042827;28;832;-69
2023/02/20 12:59:26;;;;;;;;;;;18.00;60.30;;;;;;5043179;28;1914;-70
2023/02/20 13:01:51;;;;;;;;;;;18.00;60.40;;;;;;5075989;28;1356;-69
2023/02/20 13:04:28;;;;;;;;;;;18.00;60.50;;;;;;5071549;28;891;-67
2023/02/20 13:07:00;;;;;;;;;;;18.00;60.60;;;;;;5037609;28;1151;-67
2023/02/20 13:09:27;;;;;;;;;;;18.00;60.60;;;;;;5071070;28;868;-69
2023/02/20 13:11:56;;;;;;;;;;;18.00;60.60;;;;;;5072104;28;1275;-70
2023/02/20 13:14:24;;;;;;;;;;;18.00;60.70;;;;;;5038522;28;800;-69
2023/02/20 13:16:59;;;;;;;;;;;18.00;60.80;;;;;;5073011;28;875;-70
2023/02/20 13:19:39;;;;;;;;;;;18.00;60.80;;;;;;5042163;28;1965;-68
2023/02/20 13:22:05;;;;;;;;;;;17.90;60.80;;;;;;5040858;28;1274;-69
2023/02/20 13:24:34;;;;;;;;;;;17.90;60.90;;;;;;5071886;28;902;-66
2023/02/20 13:27:09;;;;;;;;;;;17.90;60.90;;;;;;5070670;28;855;-68
2023/02/20 13:29:38;;;;;;;;;;;17.90;61.00;;;;;;5038172;28;864;-68
2023/02/20 13:32:16;;;;;;;;;;;17.90;61.00;;;;;;5070610;28;1326;-67
2023/02/20 13:34:42;;;;;;;;;;;17.90;61.10;;;;;;5040529;28;877;-68
2023/02/20 13:37:27;;;;;;;;;;;17.90;61.90;;;;;;5071836;28;1552;-69
2023/02/20 13:39:52;;;;;;;;;;;17.90;61.20;;;;;;5041527;28;1003;-69
2023/02/20 13:42:28;;;;;;;;;;;17.90;61.20;;;;;;5041643;28;1283;-70
2023/02/20 13:44:54;;;;;;;;;;;17.90;61.30;;;;;;5073275;28;861;-69
2023/02/20 13:47:25;;;;;;;;;;;17.90;61.20;;;;;;5039895;28;812;-70
2023/02/20 13:49:54;;;;;;;;;;;17.90;61.20;;;;;;5041389;28;816;-69
2023/02/20 13:52:39;;;;;;;;;;;17.90;61.20;;;;;;5039828;28;1252;-70
2023/02/20 13:55:11;;;;;;;;;;;17.90;61.10;;;;;;5070488;28;1521;-70
2023/02/20 13:57:43;;;;;;;;;;;17.90;61.00;;;;;;5038030;28;1960;-71
2023/02/20 14:00:20;;;;;;;;;;;18.00;61.00;;;;;;5039543;28;1361;-68
2023/02/20 14:02:46;;;;;;;;;;;18.00;60.90;;;;;;5070304;28;998;-69
2023/02/20 14:05:18;;;;;;;;;;;18.00;60.80;;;;;;5040266;28;1345;-68
2023/02/20 14:07:44;;;;;;;;;;;18.10;60.80;;;;;;5071238;28;894;-69
2023/02/20 14:10:12;;;;;;;;;;;18.10;60.70;;;;;;5036730;28;1370;-69
2023/02/20 14:12:38;;;;;;;;;;;18.10;60.60;;;;;;5038300;28;872;-69
2023/02/20 14:15:04;;;;;;;;;;;18.10;60.50;;;;;;5035199;28;783;-69
2023/02/20 14:17:31;;;;;;;;;;;18.20;60.50;;;;;;5037777;28;1977;-69
2023/02/20 14:19:58;;;;;;;;;;;18.20;60.40;;;;;;5072488;28;871;-69
2023/02/20 14:22:23;;;;;;;;;;;18.20;60.30;;;;;;5071326;28;883;-69
2023/02/20 14:25:01;;;;;;;;;;;18.20;60.30;;;;;;5039683;28;923;-69
2023/02/20 14:27:27;;;;;;;;;;;18.20;60.20;;;;;;5041067;28;946;-67
2023/02/20 14:30:15;;;;;;;;;;;18.30;60.20;;;;;;5074082;28;978;-69
2023/02/20 14:32:42;;;;;;;;;;;18.30;60.10;;;;;;5054223;28;1211;-71
2023/02/20 14:35:11;;;;;;;;;;;18.30;60.10;;;;;;5069794;28;1951;-68
2023/02/20 14:37:36;;;;;;;;;;;18.30;60.10;;;;;;5070143;28;1871;-69
2023/02/20 14:40:07;;;;;;;;;;;18.30;60.00;;;;;;5035984;28;1270;-68
2023/02/20 14:42:33;;;;;;;;;;;18.30;60.00;;;;;;5071924;28;2051;-68
2023/02/20 14:45:03;;;;;;;;;;;18.30;60.00;;;;;;5069750;28;1362;-71
2023/02/20 14:47:30;;;;;;;;;;;18.30;60.00;;;;;;5070553;28;1265;-70
2023/02/20 14:50:14;;;;;;;;;;;18.30;59.90;;;;;;5040272;28;860;-69
2023/02/20 14:52:40;;;;;;;;;;;18.30;59.90;;;;;;5036424;28;848;-70
2023/02/20 14:55:05;;;;;;;;;;;18.30;59.90;;;;;;5061726;28;1831;-70
2023/02/20 14:57:31;;;;;;;;;;;18.30;59.90;;;;;;5038646;28;1914;-70
2023/02/20 15:00:15;;;;;;;;;;;18.30;59.90;;;;;;5071108;28;1549;-71
2023/02/20 15:02:41;;;;;;;;;;;18.30;59.90;;;;;;5036897;28;1203;-69